createdAt,value
2018-12-08T00:02:57.181Z,67.18
2018-12-08T00:06:00.441Z,67.53
2018-12-08T00:09:04.609Z,67.62
2018-12-08T00:12:07.852Z,68.68
2018-12-08T00:15:11.191Z,69.71
2018-12-08T00:18:14.415Z,69.89
2018-12-08T00:21:17.638Z,70.07
2018-12-08T00:24:20.874Z,69.93
2018-12-08T00:27:24.187Z,70.19
2018-12-08T00:30:45.390Z,69.09
2018-12-08T00:33:48.688Z,69.28
2018-12-08T00:36:51.945Z,68.90
2018-12-08T00:39:55.169Z,68.47
2018-12-08T00:42:58.401Z,67.42
2018-12-08T00:46:01.670Z,67.52
2018-12-08T00:49:04.884Z,67.98
2018-12-08T00:52:08.234Z,66.92
2018-12-08T00:55:11.577Z,67.19
2018-12-08T00:58:14.881Z,65.09
2018-12-08T01:01:18.156Z,66.23
2018-12-08T01:04:21.373Z,66.35
2018-12-08T01:07:24.640Z,64.46
2018-12-08T01:10:27.884Z,64.73
2018-12-08T01:13:31.139Z,64.88
2018-12-08T01:16:34.380Z,63.58
2018-12-08T01:19:37.702Z,62.42
2018-12-08T01:22:40.901Z,62.87
2018-12-08T01:25:44.211Z,63.57
2018-12-08T01:28:47.432Z,62.54
2018-12-08T01:31:50.653Z,63.03
2018-12-08T01:34:54.102Z,62.99
2018-12-08T01:37:57.318Z,62.72
2018-12-08T01:41:00.587Z,63.06
2018-12-08T01:44:03.860Z,63.60
2018-12-08T01:47:07.122Z,62.39
2018-12-08T01:50:10.388Z,62.13
2018-12-08T01:53:13.685Z,62.20
2018-12-08T01:56:16.947Z,62.33
2018-12-08T01:59:20.192Z,61.89
2018-12-08T02:02:23.489Z,61.33
2018-12-08T02:05:26.721Z,60.95
2018-12-08T02:08:29.941Z,60.48
2018-12-08T02:11:33.162Z,61.52
2018-12-08T02:14:36.454Z,61.66
2018-12-08T02:17:39.697Z,62.38
2018-12-08T02:20:42.933Z,62.54
2018-12-08T02:23:46.156Z,62.83
2018-12-08T02:26:49.394Z,61.76
2018-12-08T02:29:52.751Z,62.28
2018-12-08T02:32:55.960Z,62.68
2018-12-08T02:35:59.218Z,61.81
2018-12-08T02:39:02.897Z,61.93
2018-12-08T02:42:06.134Z,61.10
2018-12-08T02:45:09.466Z,61.13
2018-12-08T02:48:12.832Z,61.01
2018-12-08T02:51:16.062Z,60.78
2018-12-08T02:54:19.318Z,61.93
2018-12-08T02:57:22.547Z,62.77
2018-12-08T03:00:25.869Z,62.15
2018-12-08T03:03:29.109Z,62.18
2018-12-08T03:06:32.421Z,61.92
2018-12-08T03:09:35.685Z,62.71
2018-12-08T03:12:38.896Z,62.94
2018-12-08T03:15:42.130Z,63.73
2018-12-08T03:18:45.360Z,64.76
2018-12-08T03:21:48.722Z,65.08
2018-12-08T03:24:52.025Z,65.86
2018-12-08T03:27:55.356Z,66.60
2018-12-08T03:30:58.694Z,67.15
2018-12-08T03:34:02.054Z,66.92
2018-12-08T03:37:05.352Z,67.37
2018-12-08T03:40:08.924Z,67.73
2018-12-08T03:43:12.229Z,67.43
2018-12-08T03:46:15.508Z,67.35
2018-12-08T03:49:18.781Z,67.09
2018-12-08T03:52:22.094Z,67.31
2018-12-08T03:55:25.402Z,67.90
2018-12-08T03:58:28.711Z,68.58
2018-12-08T04:01:31.987Z,68.13
2018-12-08T04:04:35.267Z,68.40
2018-12-08T04:07:38.501Z,67.60
2018-12-08T04:10:41.827Z,67.91
2018-12-08T04:13:45.186Z,68.72
2018-12-08T04:16:48.517Z,69.61
2018-12-08T04:19:51.747Z,70.29
2018-12-08T04:22:54.966Z,70.46
2018-12-08T04:25:58.245Z,71.79
2018-12-08T04:29:01.512Z,71.94
2018-12-08T04:32:04.848Z,71.55
2018-12-08T04:35:08.107Z,71.81
2018-12-08T04:38:11.400Z,72.17
2018-12-08T04:41:14.626Z,71.45
2018-12-08T04:44:17.844Z,71.11
2018-12-08T04:47:21.078Z,70.56
2018-12-08T04:50:24.393Z,70.64
2018-12-08T04:53:27.601Z,70.84
2018-12-08T04:56:30.829Z,71.03
2018-12-08T04:59:34.044Z,70.92
2018-12-08T05:02:37.273Z,71.19
2018-12-08T05:05:40.532Z,71.28
2018-12-08T05:08:43.785Z,70.74
2018-12-08T05:11:47.068Z,70.71
2018-12-08T05:14:50.289Z,70.08
2018-12-08T05:17:53.512Z,70.26
2018-12-08T05:20:56.760Z,71.79
2018-12-08T05:23:59.984Z,70.75
2018-12-08T05:27:03.200Z,71.42
2018-12-08T05:30:06.739Z,71.12
2018-12-08T05:33:09.997Z,70.42
2018-12-08T05:36:13.228Z,70.03
2018-12-08T05:39:16.658Z,70.22
2018-12-08T05:42:19.892Z,70.00
2018-12-08T05:45:23.124Z,69.28
2018-12-08T05:48:26.370Z,68.82
2018-12-08T05:51:29.598Z,69.45
2018-12-08T05:54:32.825Z,69.34
2018-12-08T05:57:36.152Z,69.67
2018-12-08T06:00:39.537Z,69.77
2018-12-08T06:03:42.768Z,69.63
2018-12-08T06:06:46.000Z,69.00
2018-12-08T06:09:49.220Z,68.81
2018-12-08T06:12:52.452Z,67.97
2018-12-08T06:15:55.668Z,67.86
2018-12-08T06:18:58.912Z,68.54
2018-12-08T06:22:02.131Z,67.78
2018-12-08T06:25:08.561Z,68.02
2018-12-08T06:28:14.267Z,68.14
2018-12-08T06:31:17.520Z,67.63
2018-12-08T06:34:20.744Z,67.07
2018-12-08T06:37:24.014Z,67.26
2018-12-08T06:40:29.304Z,67.38
2018-12-08T06:43:32.469Z,67.49
2018-12-08T06:46:35.717Z,67.23
2018-12-08T06:49:38.973Z,67.03
2018-12-08T06:52:42.185Z,66.85
2018-12-08T06:55:45.472Z,67.17
2018-12-08T06:58:48.814Z,67.26
2018-12-08T07:01:52.045Z,66.43
2018-12-08T07:04:55.256Z,66.74
2018-12-08T07:07:58.484Z,66.09
2018-12-08T07:11:01.728Z,65.59
2018-12-08T07:14:05.012Z,65.82
2018-12-08T07:17:08.349Z,65.55
2018-12-08T07:20:11.598Z,65.76
2018-12-08T07:23:14.825Z,65.19
2018-12-08T07:26:18.058Z,65.65
2018-12-08T07:29:25.197Z,65.84
2018-12-08T07:32:28.564Z,65.64
2018-12-08T07:35:31.809Z,65.84
2018-12-08T07:38:35.074Z,65.73
2018-12-08T07:41:38.329Z,66.63
2018-12-08T07:44:41.586Z,66.13
2018-12-08T07:47:44.847Z,66.36
2018-12-08T07:50:48.067Z,66.17
2018-12-08T07:53:51.586Z,66.52
2018-12-08T07:56:54.812Z,67.01
2018-12-08T07:59:58.032Z,67.09
2018-12-08T08:03:01.285Z,66.62
2018-12-08T08:06:04.632Z,66.39
2018-12-08T08:09:07.886Z,67.11
2018-12-08T08:12:11.144Z,67.09
2018-12-08T08:15:14.394Z,67.34
2018-12-08T08:18:17.621Z,67.19
2018-12-08T08:21:20.926Z,66.48
2018-12-08T08:24:24.227Z,66.61
2018-12-08T08:27:27.529Z,66.41
2018-12-08T08:30:30.750Z,66.79
2018-12-08T08:33:33.981Z,66.60
2018-12-08T08:36:37.284Z,65.88
2018-12-08T08:39:40.505Z,66.22
2018-12-08T08:42:43.804Z,66.64
2018-12-08T08:45:47.016Z,66.16
2018-12-08T08:48:50.249Z,66.34
2018-12-08T08:51:53.475Z,65.64
2018-12-08T08:54:56.790Z,66.11
2018-12-08T08:57:59.995Z,65.42
2018-12-08T09:01:03.395Z,65.23
2018-12-08T09:04:06.627Z,64.40
2018-12-08T09:07:09.852Z,64.85
2018-12-08T09:10:13.085Z,64.83
2018-12-08T09:13:16.309Z,64.82
2018-12-08T09:16:19.549Z,65.05
2018-12-08T09:19:22.778Z,64.78
2018-12-08T09:22:26.153Z,64.78
2018-12-08T09:25:29.374Z,64.64
2018-12-08T09:28:32.632Z,64.64
2018-12-08T09:31:35.843Z,64.71
2018-12-08T09:34:39.068Z,64.91
2018-12-08T09:37:42.351Z,64.38
2018-12-08T09:40:45.556Z,64.72
2018-12-08T09:43:48.780Z,64.12
2018-12-08T09:46:51.997Z,65.35
2018-12-08T09:49:55.313Z,65.07
2018-12-08T09:53:12.866Z,65.59
2018-12-08T09:56:16.084Z,65.50
2018-12-08T09:59:19.335Z,65.71
2018-12-08T10:02:22.576Z,65.07
2018-12-08T10:05:25.823Z,65.90
2018-12-08T10:08:29.080Z,65.85
2018-12-08T10:11:32.325Z,66.19
2018-12-08T10:14:35.680Z,66.13
2018-12-08T10:17:38.981Z,66.49
2018-12-08T10:20:42.527Z,66.86
2018-12-08T10:23:45.837Z,66.49
2018-12-08T10:26:49.031Z,65.86
2018-12-08T10:29:52.267Z,65.71
2018-12-08T10:32:55.593Z,65.68
2018-12-08T10:35:58.923Z,66.61
2018-12-08T10:39:02.219Z,66.17
2018-12-08T10:42:05.429Z,68.17
2018-12-08T10:45:08.725Z,68.96
2018-12-08T10:48:11.972Z,70.05
2018-12-08T10:51:15.188Z,70.10
2018-12-08T10:54:18.416Z,70.48
2018-12-08T10:57:21.951Z,68.70
2018-12-08T11:00:30.727Z,68.35
2018-12-08T11:03:52.493Z,66.33
2018-12-08T11:06:55.755Z,61.74
2018-12-08T11:09:58.969Z,58.46
2018-12-08T11:13:02.231Z,61.02
2018-12-08T11:16:05.581Z,63.75
2018-12-08T11:19:08.861Z,65.35
2018-12-08T11:22:12.083Z,66.38
2018-12-08T11:25:15.434Z,67.76
2018-12-08T11:28:18.648Z,68.22
2018-12-08T11:31:21.907Z,67.49
2018-12-08T11:34:25.161Z,69.08
2018-12-08T11:37:28.376Z,68.98
2018-12-08T11:40:31.610Z,69.21
2018-12-08T11:43:34.839Z,67.63
2018-12-08T11:46:39.234Z,67.77
2018-12-08T11:49:43.118Z,68.10
2018-12-08T11:52:46.577Z,68.71
2018-12-08T11:55:49.799Z,69.32
2018-12-08T11:58:53.026Z,70.06
2018-12-08T12:01:56.336Z,69.36
2018-12-08T12:04:59.674Z,69.48
2018-12-08T12:08:03.033Z,69.71
2018-12-08T12:11:06.241Z,69.34
2018-12-08T12:14:09.507Z,69.79
2018-12-08T12:17:12.760Z,70.66
2018-12-08T12:20:15.988Z,70.57
2018-12-08T12:23:19.249Z,71.17
2018-12-08T12:26:22.545Z,70.79
2018-12-08T12:29:25.796Z,69.82
2018-12-08T12:32:29.139Z,70.01
2018-12-08T12:35:32.417Z,69.96
2018-12-08T12:38:35.649Z,69.00
2018-12-08T12:41:38.904Z,69.05
2018-12-08T12:44:42.206Z,68.24
2018-12-08T12:47:45.532Z,68.42
2018-12-08T12:50:48.857Z,69.53
2018-12-08T12:53:52.085Z,67.05
2018-12-08T12:56:55.360Z,66.71
2018-12-08T12:59:58.749Z,67.10
2018-12-08T13:03:02.052Z,66.83
2018-12-08T13:06:05.286Z,66.94
2018-12-08T13:09:08.570Z,65.93
2018-12-08T13:12:12.193Z,66.97
2018-12-08T13:15:15.562Z,67.50
2018-12-08T13:18:18.780Z,67.25
2018-12-08T13:21:22.057Z,68.35
2018-12-08T13:24:30.361Z,69.75
2018-12-08T13:27:33.610Z,69.95
2018-12-08T13:30:36.860Z,70.86
2018-12-08T13:33:40.089Z,72.33
2018-12-08T13:36:43.352Z,72.23
2018-12-08T13:39:46.559Z,72.65
2018-12-08T13:42:49.804Z,72.41
2018-12-08T13:45:53.067Z,71.75
2018-12-08T13:48:56.299Z,71.92
2018-12-08T13:51:59.640Z,73.19
2018-12-08T13:55:02.930Z,73.36
2018-12-08T13:58:06.160Z,73.44
2018-12-08T14:01:09.426Z,73.05
2018-12-08T14:04:12.640Z,74.00
2018-12-08T14:07:15.913Z,75.40
2018-12-08T14:10:19.128Z,75.21
2018-12-08T14:13:22.466Z,74.56
2018-12-08T14:16:25.697Z,74.73
2018-12-08T14:19:28.973Z,74.38
2018-12-08T14:22:32.201Z,74.63
2018-12-08T14:25:35.461Z,74.25
2018-12-08T14:28:39.136Z,74.10
2018-12-08T14:31:43.053Z,74.35
2018-12-08T14:34:46.280Z,73.88
2018-12-08T14:37:49.572Z,73.58
2018-12-08T14:40:52.800Z,73.57
2018-12-08T14:43:56.061Z,73.82
2018-12-08T14:46:59.303Z,73.31
2018-12-08T14:50:02.690Z,73.16
2018-12-08T14:53:06.092Z,73.49
2018-12-08T14:56:09.349Z,72.64
2018-12-08T14:59:12.578Z,72.68
2018-12-08T15:02:15.803Z,73.35
2018-12-08T15:05:19.055Z,73.81
2018-12-08T15:08:22.286Z,73.05
2018-12-08T15:11:25.562Z,73.78
2018-12-08T15:14:30.400Z,74.07
2018-12-08T15:17:33.950Z,73.77
2018-12-08T15:20:37.432Z,74.64
2018-12-08T15:23:40.902Z,74.16
2018-12-08T15:26:44.141Z,72.90
2018-12-08T15:29:47.394Z,72.43
2018-12-08T15:32:50.602Z,72.29
2018-12-08T15:35:54.708Z,71.78
2018-12-08T15:38:57.952Z,72.69
2018-12-08T15:42:01.185Z,71.74
2018-12-08T15:45:08.003Z,72.28
2018-12-08T15:48:11.277Z,72.41
2018-12-08T15:51:14.506Z,71.72
2018-12-08T15:54:17.749Z,72.36
2018-12-08T15:57:20.983Z,71.95
2018-12-08T16:00:24.260Z,71.67
2018-12-08T16:03:27.461Z,71.61
2018-12-08T16:06:30.685Z,71.84
2018-12-08T16:09:33.939Z,71.54
2018-12-08T16:12:37.181Z,71.38
2018-12-08T16:15:40.447Z,71.49
2018-12-08T16:18:43.666Z,72.33
2018-12-08T16:21:46.933Z,71.72
2018-12-08T16:24:50.212Z,71.79
2018-12-08T16:27:53.513Z,72.15
2018-12-08T16:30:56.821Z,73.09
2018-12-08T16:34:00.112Z,72.45
2018-12-08T16:37:03.396Z,72.99
2018-12-08T16:40:06.676Z,72.62
2018-12-08T16:43:10.013Z,72.77
2018-12-08T16:46:13.213Z,72.52
2018-12-08T16:49:16.487Z,71.58
2018-12-08T16:52:19.737Z,70.93
2018-12-08T16:55:22.981Z,70.92
2018-12-08T16:58:26.230Z,70.74
2018-12-08T17:01:29.503Z,70.68
2018-12-08T17:04:32.766Z,71.11
2018-12-08T17:07:36.048Z,70.60
2018-12-08T17:10:39.302Z,70.72
2018-12-08T17:13:42.563Z,70.55
2018-12-08T17:16:45.807Z,70.07
2018-12-08T17:19:49.028Z,70.40
2018-12-08T17:22:52.268Z,69.89
2018-12-08T17:25:55.516Z,70.42
2018-12-08T17:28:58.736Z,70.54
2018-12-08T17:32:02.046Z,70.94
2018-12-08T17:35:05.312Z,70.50
2018-12-08T17:38:08.580Z,70.30
2018-12-08T17:41:11.823Z,70.91
2018-12-08T17:44:15.048Z,71.04
2018-12-08T17:47:18.372Z,71.19
2018-12-08T17:50:21.599Z,70.88
2018-12-08T17:53:24.841Z,71.24
2018-12-08T17:56:28.124Z,71.78
2018-12-08T17:59:31.348Z,71.31
2018-12-08T18:02:34.614Z,71.10
2018-12-08T18:05:39.952Z,70.60
2018-12-08T18:08:43.176Z,71.10
2018-12-08T18:11:46.546Z,71.23
2018-12-08T18:14:49.772Z,71.34
2018-12-08T18:17:53.072Z,71.12
2018-12-08T18:20:56.320Z,71.20
2018-12-08T18:23:59.633Z,71.78
2018-12-08T18:27:03.030Z,71.55
2018-12-08T18:30:07.293Z,71.76
2018-12-08T18:33:10.546Z,72.12
2018-12-08T18:36:13.758Z,72.19
2018-12-08T18:39:17.018Z,72.22
2018-12-08T18:42:20.224Z,71.96
2018-12-08T18:45:23.475Z,71.97
2018-12-08T18:48:26.677Z,72.06
2018-12-08T18:51:29.907Z,72.10
2018-12-08T18:54:33.158Z,71.90
2018-12-08T18:57:36.405Z,72.08
2018-12-08T19:00:39.685Z,72.42
2018-12-08T19:03:43.007Z,72.10
2018-12-08T19:06:46.213Z,72.05
2018-12-08T19:09:49.601Z,71.64
2018-12-08T19:12:52.844Z,71.82
2018-12-08T19:15:56.145Z,71.65
2018-12-08T19:18:59.371Z,72.24
2018-12-08T19:22:02.812Z,71.72
2018-12-08T19:25:06.732Z,71.57
2018-12-08T19:28:09.998Z,71.82
2018-12-08T19:31:13.207Z,71.90
2018-12-08T19:34:16.419Z,71.60
2018-12-08T19:37:19.672Z,71.07
2018-12-08T19:40:22.900Z,70.77
2018-12-08T19:43:27.001Z,71.69
2018-12-08T19:46:30.337Z,71.45
2018-12-08T19:49:33.588Z,72.20
2018-12-08T19:52:36.828Z,72.01
2018-12-08T19:55:40.080Z,72.22
2018-12-08T19:58:43.309Z,72.74
2018-12-08T20:01:46.572Z,73.07
2018-12-08T20:04:49.788Z,73.15
2018-12-08T20:07:53.067Z,73.32
2018-12-08T20:10:56.277Z,73.85
2018-12-08T20:13:59.559Z,75.27
2018-12-08T20:17:02.766Z,76.94
2018-12-08T20:20:06.060Z,76.73
2018-12-08T20:23:09.317Z,76.81
2018-12-08T20:26:12.648Z,76.74
2018-12-08T20:29:16.001Z,77.17
2018-12-08T20:32:19.332Z,76.81
2018-12-08T20:35:22.637Z,76.70
2018-12-08T20:38:25.857Z,77.14
2018-12-08T20:41:29.127Z,77.47
2018-12-08T20:44:32.338Z,77.58
2018-12-08T20:47:35.590Z,77.73
2018-12-08T20:50:38.795Z,78.33
2018-12-08T20:53:42.097Z,78.66
2018-12-08T20:56:45.310Z,78.52
2018-12-08T20:59:48.603Z,78.54
2018-12-08T21:02:51.837Z,78.75
2018-12-08T21:05:55.095Z,77.66
2018-12-08T21:08:58.320Z,77.74
2018-12-08T21:12:01.586Z,77.89
2018-12-08T21:15:05.468Z,77.98
2018-12-08T21:18:08.744Z,77.85
2018-12-08T21:21:12.397Z,77.65
2018-12-08T21:24:15.677Z,77.39
2018-12-08T21:27:18.881Z,77.36
2018-12-08T21:30:22.189Z,77.30
2018-12-08T21:33:25.416Z,77.21
2018-12-08T21:36:28.660Z,76.51
2018-12-08T21:39:31.901Z,77.01
2018-12-08T21:42:35.176Z,76.78
2018-12-08T21:45:38.419Z,76.52
2018-12-08T21:48:41.740Z,76.82
2018-12-08T21:51:45.782Z,76.23
2018-12-08T21:54:49.078Z,77.31
2018-12-08T21:57:52.282Z,79.23
2018-12-08T22:00:55.560Z,79.04
2018-12-08T22:03:58.820Z,79.22
2018-12-08T22:07:02.076Z,79.74
2018-12-08T22:10:05.869Z,79.86
2018-12-08T22:13:09.124Z,80.02
2018-12-08T22:16:12.375Z,80.36
2018-12-08T22:19:15.661Z,80.21
2018-12-08T22:22:18.885Z,79.96
2018-12-08T22:25:22.151Z,79.65
2018-12-08T22:28:25.369Z,79.94
2018-12-08T22:31:28.590Z,78.99
2018-12-08T22:34:31.904Z,78.62
2018-12-08T22:37:35.233Z,77.83
2018-12-08T22:40:38.479Z,79.08
2018-12-08T22:43:41.791Z,78.46
2018-12-08T22:46:45.128Z,77.82
2018-12-08T22:49:48.360Z,77.48
2018-12-08T22:52:51.723Z,77.25
2018-12-08T22:55:54.980Z,77.51
2018-12-08T22:58:58.206Z,77.29
2018-12-08T23:02:01.465Z,76.71
2018-12-08T23:05:05.335Z,77.50
2018-12-08T23:08:08.614Z,76.80
2018-12-08T23:11:11.949Z,76.09
2018-12-08T23:14:15.316Z,75.89
2018-12-08T23:17:18.642Z,75.40
2018-12-08T23:20:21.884Z,75.18
2018-12-08T23:23:25.209Z,76.42
2018-12-08T23:26:28.594Z,77.69
2018-12-08T23:29:31.955Z,78.24
2018-12-08T23:32:35.230Z,78.69
2018-12-08T23:35:38.444Z,78.53
2018-12-08T23:38:41.731Z,78.78
2018-12-08T23:41:44.989Z,79.67
2018-12-08T23:44:48.261Z,78.54
2018-12-08T23:47:51.481Z,78.34
2018-12-08T23:50:54.776Z,78.99
2018-12-08T23:53:58.072Z,79.47
2018-12-08T23:57:01.330Z,79.20
